sensor_id;sensor_type;location;lat;lon;timestamp;P1;durP1;ratioP1;P2;durP2;ratioP2
10497;SDS011;5296;51.060;13.750;2024-02-21T00:02:45;7.15;;;3.00;;
10497;SDS011;5296;51.060;13.750;2024-02-21T00:07:46;10.52;;;3.58;;
10497;SDS011;5296;51.060;13.750;2024-02-21T00:12:48;8.48;;;2.83;;
10497;SDS011;5296;51.060;13.750;2024-02-21T00:17:50;8.30;;;3.00;;
10497;SDS011;5296;51.060;13.750;2024-02-21T00:22:52;6.38;;;2.67;;
10497;SDS011;5296;51.060;13.750;2024-02-21T00:27:54;10.30;;;3.05;;
10497;SDS011;5296;51.060;13.750;2024-02-21T00:32:55;8.32;;;3.20;;
10497;SDS011;5296;51.060;13.750;2024-02-21T00:37:57;8.95;;;3.35;;
10497;SDS011;5296;51.060;13.750;2024-02-21T00:43:01;10.40;;;2.95;;
10497;SDS011;5296;51.060;13.750;2024-02-21T00:48:02;9.30;;;2.85;;
10497;SDS011;5296;51.060;13.750;2024-02-21T00:53:04;6.53;;;3.00;;
10497;SDS011;5296;51.060;13.750;2024-02-21T00:58:06;7.95;;;2.92;;
10497;SDS011;5296;51.060;13.750;2024-02-21T01:03:08;8.25;;;2.97;;
10497;SDS011;5296;51.060;13.750;2024-02-21T01:08:09;7.22;;;2.95;;
10497;SDS011;5296;51.060;13.750;2024-02-21T01:13:11;8.27;;;3.20;;
10497;SDS011;5296;51.060;13.750;2024-02-21T01:18:13;11.32;;;3.05;;
10497;SDS011;5296;51.060;13.750;2024-02-21T01:23:15;8.50;;;3.03;;
10497;SDS011;5296;51.060;13.750;2024-02-21T01:28:16;6.95;;;3.00;;
10497;SDS011;5296;51.060;13.750;2024-02-21T01:33:19;8.93;;;2.85;;
10497;SDS011;5296;51.060;13.750;2024-02-21T01:38:21;8.27;;;2.92;;
10497;SDS011;5296;51.060;13.750;2024-02-21T01:43:22;6.18;;;2.58;;
10497;SDS011;5296;51.060;13.750;2024-02-21T01:48:24;9.05;;;3.17;;
10497;SDS011;5296;51.060;13.750;2024-02-21T01:53:30;8.70;;;2.85;;
10497;SDS011;5296;51.060;13.750;2024-02-21T01:58:35;7.88;;;2.58;;
10497;SDS011;5296;51.060;13.750;2024-02-21T02:03:39;7.38;;;2.97;;
10497;SDS011;5296;51.060;13.750;2024-02-21T02:08:40;8.30;;;2.80;;
10497;SDS011;5296;51.060;13.750;2024-02-21T02:13:43;6.88;;;3.00;;
10497;SDS011;5296;51.060;13.750;2024-02-21T02:18:45;10.15;;;3.90;;
10497;SDS011;5296;51.060;13.750;2024-02-21T02:23:46;6.32;;;3.03;;
10497;SDS011;5296;51.060;13.750;2024-02-21T02:28:48;7.15;;;3.00;;
10497;SDS011;5296;51.060;13.750;2024-02-21T02:33:50;7.65;;;2.65;;
10497;SDS011;5296;51.060;13.750;2024-02-21T02:38:52;6.45;;;3.22;;
10497;SDS011;5296;51.060;13.750;2024-02-21T02:43:53;6.90;;;2.75;;
10497;SDS011;5296;51.060;13.750;2024-02-21T02:48:55;7.35;;;2.67;;
10497;SDS011;5296;51.060;13.750;2024-02-21T02:53:57;8.40;;;2.85;;
10497;SDS011;5296;51.060;13.750;2024-02-21T02:58:58;5.75;;;2.72;;
10497;SDS011;5296;51.060;13.750;2024-02-21T03:04:01;9.48;;;3.20;;
10497;SDS011;5296;51.060;13.750;2024-02-21T03:09:03;5.22;;;2.90;;
10497;SDS011;5296;51.060;13.750;2024-02-21T03:14:10;9.52;;;3.10;;
10497;SDS011;5296;51.060;13.750;2024-02-21T03:19:12;7.93;;;3.90;;
10497;SDS011;5296;51.060;13.750;2024-02-21T03:24:14;10.63;;;3.30;;
10497;SDS011;5296;51.060;13.750;2024-02-21T03:29:15;8.48;;;3.45;;
10497;SDS011;5296;51.060;13.750;2024-02-21T03:34:17;11.02;;;3.45;;
10497;SDS011;5296;51.060;13.750;2024-02-21T03:39:19;6.75;;;3.53;;
10497;SDS011;5296;51.060;13.750;2024-02-21T03:44:22;7.55;;;2.83;;
10497;SDS011;5296;51.060;13.750;2024-02-21T03:49:24;8.98;;;3.42;;
10497;SDS011;5296;51.060;13.750;2024-02-21T03:54:25;10.73;;;3.00;;
10497;SDS011;5296;51.060;13.750;2024-02-21T03:59:27;7.50;;;2.92;;
10497;SDS011;5296;51.060;13.750;2024-02-21T04:04:29;9.65;;;3.15;;
10497;SDS011;5296;51.060;13.750;2024-02-21T04:09:30;9.05;;;2.90;;
10497;SDS011;5296;51.060;13.750;2024-02-21T04:14:32;6.85;;;3.25;;
10497;SDS011;5296;51.060;13.750;2024-02-21T04:19:34;7.45;;;3.22;;
10497;SDS011;5296;51.060;13.750;2024-02-21T04:24:36;6.22;;;3.15;;
10497;SDS011;5296;51.060;13.750;2024-02-21T04:29:37;7.25;;;3.58;;
10497;SDS011;5296;51.060;13.750;2024-02-21T04:34:40;5.88;;;3.00;;
10497;SDS011;5296;51.060;13.750;2024-02-21T04:39:42;7.55;;;3.28;;
10497;SDS011;5296;51.060;13.750;2024-02-21T04:44:44;9.18;;;3.30;;
10497;SDS011;5296;51.060;13.750;2024-02-21T04:49:46;6.88;;;3.28;;
10497;SDS011;5296;51.060;13.750;2024-02-21T04:54:48;7.38;;;3.15;;
10497;SDS011;5296;51.060;13.750;2024-02-21T04:59:50;8.95;;;3.25;;
10497;SDS011;5296;51.060;13.750;2024-02-21T05:04:52;11.70;;;3.70;;
10497;SDS011;5296;51.060;13.750;2024-02-21T05:09:54;9.68;;;3.75;;
10497;SDS011;5296;51.060;13.750;2024-02-21T05:14:56;7.38;;;3.05;;
10497;SDS011;5296;51.060;13.750;2024-02-21T05:19:57;10.30;;;3.45;;
10497;SDS011;5296;51.060;13.750;2024-02-21T05:24:59;6.07;;;3.17;;
10497;SDS011;5296;51.060;13.750;2024-02-21T05:30:01;10.48;;;3.60;;
10497;SDS011;5296;51.060;13.750;2024-02-21T05:35:03;9.82;;;3.17;;
10497;SDS011;5296;51.060;13.750;2024-02-21T05:40:05;8.15;;;3.50;;
10497;SDS011;5296;51.060;13.750;2024-02-21T05:45:07;11.00;;;3.63;;
10497;SDS011;5296;51.060;13.750;2024-02-21T05:50:09;12.30;;;4.00;;
10497;SDS011;5296;51.060;13.750;2024-02-21T05:55:11;10.85;;;3.63;;
10497;SDS011;5296;51.060;13.750;2024-02-21T06:00:13;6.75;;;3.03;;
10497;SDS011;5296;51.060;13.750;2024-02-21T06:05:16;11.55;;;3.88;;
10497;SDS011;5296;51.060;13.750;2024-02-21T06:10:18;8.80;;;3.90;;
10497;SDS011;5296;51.060;13.750;2024-02-21T06:15:20;8.27;;;3.67;;
10497;SDS011;5296;51.060;13.750;2024-02-21T06:20:21;8.35;;;3.00;;
10497;SDS011;5296;51.060;13.750;2024-02-21T06:25:23;7.80;;;3.42;;
10497;SDS011;5296;51.060;13.750;2024-02-21T06:30:25;7.25;;;3.20;;
10497;SDS011;5296;51.060;13.750;2024-02-21T06:35:27;10.50;;;3.80;;
10497;SDS011;5296;51.060;13.750;2024-02-21T06:40:28;8.27;;;4.00;;
10497;SDS011;5296;51.060;13.750;2024-02-21T06:45:30;6.47;;;3.17;;
10497;SDS011;5296;51.060;13.750;2024-02-21T06:50:32;9.55;;;3.53;;
10497;SDS011;5296;51.060;13.750;2024-02-21T06:55:34;7.22;;;3.50;;
10497;SDS011;5296;51.060;13.750;2024-02-21T07:00:35;11.80;;;3.35;;
10497;SDS011;5296;51.060;13.750;2024-02-21T07:05:37;7.45;;;3.65;;
10497;SDS011;5296;51.060;13.750;2024-02-21T07:10:39;9.50;;;3.85;;
10497;SDS011;5296;51.060;13.750;2024-02-21T07:15:41;9.70;;;3.45;;
10497;SDS011;5296;51.060;13.750;2024-02-21T07:20:43;8.73;;;3.47;;
10497;SDS011;5296;51.060;13.750;2024-02-21T07:25:44;7.10;;;3.70;;
10497;SDS011;5296;51.060;13.750;2024-02-21T07:30:46;10.43;;;3.83;;
10497;SDS011;5296;51.060;13.750;2024-02-21T07:35:48;9.18;;;3.63;;
10497;SDS011;5296;51.060;13.750;2024-02-21T07:40:50;8.80;;;4.00;;
10497;SDS011;5296;51.060;13.750;2024-02-21T07:45:52;8.23;;;3.50;;
10497;SDS011;5296;51.060;13.750;2024-02-21T07:50:57;8.13;;;3.65;;
10497;SDS011;5296;51.060;13.750;2024-02-21T07:55:58;12.38;;;3.42;;
10497;SDS011;5296;51.060;13.750;2024-02-21T08:01:01;5.72;;;3.47;;
10497;SDS011;5296;51.060;13.750;2024-02-21T08:06:03;9.20;;;3.75;;
10497;SDS011;5296;51.060;13.750;2024-02-21T08:11:04;7.15;;;3.13;;
10497;SDS011;5296;51.060;13.750;2024-02-21T08:16:07;7.75;;;3.35;;
10497;SDS011;5296;51.060;13.750;2024-02-21T08:21:08;8.70;;;3.28;;
10497;SDS011;5296;51.060;13.750;2024-02-21T08:26:10;6.10;;;3.10;;
10497;SDS011;5296;51.060;13.750;2024-02-21T08:31:18;5.90;;;3.75;;
10497;SDS011;5296;51.060;13.750;2024-02-21T08:36:20;6.97;;;3.53;;
10497;SDS011;5296;51.060;13.750;2024-02-21T08:41:25;5.78;;;3.28;;
10497;SDS011;5296;51.060;13.750;2024-02-21T08:46:47;9.50;;;3.70;;
10497;SDS011;5296;51.060;13.750;2024-02-21T08:51:48;5.95;;;3.45;;
10497;SDS011;5296;51.060;13.750;2024-02-21T08:56:50;5.22;;;3.17;;
10497;SDS011;5296;51.060;13.750;2024-02-21T09:01:52;9.57;;;3.60;;
10497;SDS011;5296;51.060;13.750;2024-02-21T09:06:54;7.32;;;3.55;;
10497;SDS011;5296;51.060;13.750;2024-02-21T09:11:56;9.45;;;3.55;;
10497;SDS011;5296;51.060;13.750;2024-02-21T09:16:59;9.85;;;3.75;;
10497;SDS011;5296;51.060;13.750;2024-02-21T09:22:01;5.40;;;3.30;;
10497;SDS011;5296;51.060;13.750;2024-02-21T09:27:02;10.43;;;3.33;;
10497;SDS011;5296;51.060;13.750;2024-02-21T09:32:04;6.68;;;3.75;;
10497;SDS011;5296;51.060;13.750;2024-02-21T09:37:06;8.82;;;3.47;;
10497;SDS011;5296;51.060;13.750;2024-02-21T09:42:08;7.82;;;3.78;;
10497;SDS011;5296;51.060;13.750;2024-02-21T09:47:15;9.13;;;3.45;;
10497;SDS011;5296;51.060;13.750;2024-02-21T09:52:20;7.07;;;3.63;;
10497;SDS011;5296;51.060;13.750;2024-02-21T09:57:23;8.80;;;3.60;;
10497;SDS011;5296;51.060;13.750;2024-02-21T10:02:26;6.65;;;3.38;;
10497;SDS011;5296;51.060;13.750;2024-02-21T10:07:28;9.40;;;3.13;;
10497;SDS011;5296;51.060;13.750;2024-02-21T10:12:29;6.53;;;3.35;;
10497;SDS011;5296;51.060;13.750;2024-02-21T10:17:34;7.03;;;3.20;;
10497;SDS011;5296;51.060;13.750;2024-02-21T10:22:37;6.47;;;3.22;;
10497;SDS011;5296;51.060;13.750;2024-02-21T10:27:40;9.85;;;3.63;;
10497;SDS011;5296;51.060;13.750;2024-02-21T10:32:55;7.72;;;3.13;;
10497;SDS011;5296;51.060;13.750;2024-02-21T10:37:57;9.75;;;3.03;;
10497;SDS011;5296;51.060;13.750;2024-02-21T10:43:00;10.43;;;3.42;;
10497;SDS011;5296;51.060;13.750;2024-02-21T10:48:10;9.80;;;3.10;;
10497;SDS011;5296;51.060;13.750;2024-02-21T10:53:17;9.38;;;3.05;;
10497;SDS011;5296;51.060;13.750;2024-02-21T10:58:27;6.53;;;3.22;;
10497;SDS011;5296;51.060;13.750;2024-02-21T11:03:32;3.83;;;2.90;;
10497;SDS011;5296;51.060;13.750;2024-02-21T11:08:34;8.57;;;3.15;;
10497;SDS011;5296;51.060;13.750;2024-02-21T11:13:35;4.40;;;2.63;;
10497;SDS011;5296;51.060;13.750;2024-02-21T11:18:38;7.95;;;3.05;;
10497;SDS011;5296;51.060;13.750;2024-02-21T11:23:39;6.45;;;3.00;;
10497;SDS011;5296;51.060;13.750;2024-02-21T11:28:41;6.63;;;2.72;;
10497;SDS011;5296;51.060;13.750;2024-02-21T11:33:45;3.55;;;2.72;;
10497;SDS011;5296;51.060;13.750;2024-02-21T11:38:48;8.85;;;2.90;;
10497;SDS011;5296;51.060;13.750;2024-02-21T11:43:50;6.88;;;2.75;;
10497;SDS011;5296;51.060;13.750;2024-02-21T11:48:52;7.88;;;2.97;;
10497;SDS011;5296;51.060;13.750;2024-02-21T11:53:54;6.85;;;2.97;;
10497;SDS011;5296;51.060;13.750;2024-02-21T11:59:02;5.00;;;2.80;;
10497;SDS011;5296;51.060;13.750;2024-02-21T12:04:04;7.97;;;2.80;;
10497;SDS011;5296;51.060;13.750;2024-02-21T12:09:07;8.70;;;3.42;;
10497;SDS011;5296;51.060;13.750;2024-02-21T12:14:10;6.28;;;2.88;;
10497;SDS011;5296;51.060;13.750;2024-02-21T12:19:19;6.53;;;2.83;;
10497;SDS011;5296;51.060;13.750;2024-02-21T12:24:22;7.75;;;2.60;;
10497;SDS011;5296;51.060;13.750;2024-02-21T12:29:24;3.88;;;2.40;;
10497;SDS011;5296;51.060;13.750;2024-02-21T12:34:26;4.35;;;2.65;;
10497;SDS011;5296;51.060;13.750;2024-02-21T12:39:44;5.00;;;2.65;;
10497;SDS011;5296;51.060;13.750;2024-02-21T12:44:45;3.65;;;2.33;;
10497;SDS011;5296;51.060;13.750;2024-02-21T12:49:47;3.90;;;2.13;;
10497;SDS011;5296;51.060;13.750;2024-02-21T12:54:49;3.58;;;2.15;;
10497;SDS011;5296;51.060;13.750;2024-02-21T12:59:53;5.38;;;2.50;;
10497;SDS011;5296;51.060;13.750;2024-02-21T13:04:54;4.22;;;2.80;;
10497;SDS011;5296;51.060;13.750;2024-02-21T13:09:56;7.00;;;2.50;;
10497;SDS011;5296;51.060;13.750;2024-02-21T13:14:58;3.53;;;2.50;;
10497;SDS011;5296;51.060;13.750;2024-02-21T13:19:59;5.93;;;2.55;;
10497;SDS011;5296;51.060;13.750;2024-02-21T13:25:02;6.75;;;2.83;;
10497;SDS011;5296;51.060;13.750;2024-02-21T13:30:04;4.47;;;2.75;;
10497;SDS011;5296;51.060;13.750;2024-02-21T13:35:08;3.53;;;2.45;;
10497;SDS011;5296;51.060;13.750;2024-02-21T13:40:13;4.05;;;2.45;;
10497;SDS011;5296;51.060;13.750;2024-02-21T13:45:14;6.75;;;2.70;;
10497;SDS011;5296;51.060;13.750;2024-02-21T13:50:16;7.57;;;2.95;;
10497;SDS011;5296;51.060;13.750;2024-02-21T13:55:19;6.25;;;2.28;;
10497;SDS011;5296;51.060;13.750;2024-02-21T14:00:23;4.13;;;2.53;;
10497;SDS011;5296;51.060;13.750;2024-02-21T14:05:25;4.57;;;2.72;;
10497;SDS011;5296;51.060;13.750;2024-02-21T14:10:26;5.43;;;2.95;;
10497;SDS011;5296;51.060;13.750;2024-02-21T14:15:29;4.72;;;2.28;;
10497;SDS011;5296;51.060;13.750;2024-02-21T14:20:31;8.07;;;3.13;;
10497;SDS011;5296;51.060;13.750;2024-02-21T14:25:33;6.10;;;3.22;;
10497;SDS011;5296;51.060;13.750;2024-02-21T14:30:35;6.25;;;2.80;;
10497;SDS011;5296;51.060;13.750;2024-02-21T14:35:37;4.80;;;2.35;;
10497;SDS011;5296;51.060;13.750;2024-02-21T14:40:39;6.13;;;2.78;;
10497;SDS011;5296;51.060;13.750;2024-02-21T14:45:40;6.18;;;3.25;;
10497;SDS011;5296;51.060;13.750;2024-02-21T14:50:44;3.15;;;2.30;;
10497;SDS011;5296;51.060;13.750;2024-02-21T14:55:45;4.60;;;2.35;;
10497;SDS011;5296;51.060;13.750;2024-02-21T15:00:47;4.65;;;2.67;;
10497;SDS011;5296;51.060;13.750;2024-02-21T15:05:49;4.13;;;2.58;;
10497;SDS011;5296;51.060;13.750;2024-02-21T15:10:51;3.65;;;2.72;;
10497;SDS011;5296;51.060;13.750;2024-02-21T15:15:53;4.82;;;2.80;;
10497;SDS011;5296;51.060;13.750;2024-02-21T15:20:55;5.18;;;2.78;;
10497;SDS011;5296;51.060;13.750;2024-02-21T15:25:57;5.93;;;2.90;;
10497;SDS011;5296;51.060;13.750;2024-02-21T15:31:00;7.25;;;3.15;;
10497;SDS011;5296;51.060;13.750;2024-02-21T15:36:02;3.83;;;2.53;;
10497;SDS011;5296;51.060;13.750;2024-02-21T15:41:05;6.00;;;2.92;;
10497;SDS011;5296;51.060;13.750;2024-02-21T15:46:07;6.55;;;2.90;;
10497;SDS011;5296;51.060;13.750;2024-02-21T15:51:08;5.70;;;3.60;;
10497;SDS011;5296;51.060;13.750;2024-02-21T15:56:10;5.65;;;3.30;;
10497;SDS011;5296;51.060;13.750;2024-02-21T16:01:14;9.52;;;3.40;;
10497;SDS011;5296;51.060;13.750;2024-02-21T16:06:16;6.32;;;3.38;;
10497;SDS011;5296;51.060;13.750;2024-02-21T16:11:17;6.45;;;3.65;;
10497;SDS011;5296;51.060;13.750;2024-02-21T16:16:19;6.40;;;3.70;;
10497;SDS011;5296;51.060;13.750;2024-02-21T16:21:21;6.60;;;3.83;;
10497;SDS011;5296;51.060;13.750;2024-02-21T16:26:23;9.57;;;3.80;;
10497;SDS011;5296;51.060;13.750;2024-02-21T16:31:25;7.03;;;4.03;;
10497;SDS011;5296;51.060;13.750;2024-02-21T16:36:27;9.45;;;4.35;;
10497;SDS011;5296;51.060;13.750;2024-02-21T16:41:29;10.73;;;4.55;;
10497;SDS011;5296;51.060;13.750;2024-02-21T16:46:31;9.70;;;4.25;;
10497;SDS011;5296;51.060;13.750;2024-02-21T16:51:32;8.10;;;4.13;;
10497;SDS011;5296;51.060;13.750;2024-02-21T16:56:34;9.05;;;4.07;;
10497;SDS011;5296;51.060;13.750;2024-02-21T17:01:39;6.78;;;4.18;;
10497;SDS011;5296;51.060;13.750;2024-02-21T17:06:42;9.60;;;4.68;;
10497;SDS011;5296;51.060;13.750;2024-02-21T17:11:44;8.07;;;4.85;;
10497;SDS011;5296;51.060;13.750;2024-02-21T17:16:46;8.85;;;4.65;;
10497;SDS011;5296;51.060;13.750;2024-02-21T17:21:48;7.55;;;4.63;;
10497;SDS011;5296;51.060;13.750;2024-02-21T17:26:50;7.80;;;4.60;;
10497;SDS011;5296;51.060;13.750;2024-02-21T17:31:51;11.13;;;4.80;;
10497;SDS011;5296;51.060;13.750;2024-02-21T17:36:53;7.60;;;4.93;;
10497;SDS011;5296;51.060;13.750;2024-02-21T17:41:55;10.55;;;5.38;;
10497;SDS011;5296;51.060;13.750;2024-02-21T17:46:58;13.10;;;8.85;;
10497;SDS011;5296;51.060;13.750;2024-02-21T17:52:00;9.63;;;6.38;;
10497;SDS011;5296;51.060;13.750;2024-02-21T17:57:01;10.02;;;5.13;;
10497;SDS011;5296;51.060;13.750;2024-02-21T18:02:03;8.73;;;5.07;;
10497;SDS011;5296;51.060;13.750;2024-02-21T18:07:05;10.88;;;5.07;;
10497;SDS011;5296;51.060;13.750;2024-02-21T18:12:08;8.27;;;5.18;;
10497;SDS011;5296;51.060;13.750;2024-02-21T18:17:10;9.55;;;5.45;;
10497;SDS011;5296;51.060;13.750;2024-02-21T18:22:12;8.07;;;5.47;;
10497;SDS011;5296;51.060;13.750;2024-02-21T18:27:14;11.98;;;5.97;;
10497;SDS011;5296;51.060;13.750;2024-02-21T18:32:15;8.85;;;5.43;;
10497;SDS011;5296;51.060;13.750;2024-02-21T18:37:19;10.77;;;5.70;;
10497;SDS011;5296;51.060;13.750;2024-02-21T18:42:20;10.38;;;6.15;;
10497;SDS011;5296;51.060;13.750;2024-02-21T18:47:22;12.88;;;6.25;;
10497;SDS011;5296;51.060;13.750;2024-02-21T18:52:24;9.10;;;5.88;;
10497;SDS011;5296;51.060;13.750;2024-02-21T18:57:25;10.23;;;6.82;;
10497;SDS011;5296;51.060;13.750;2024-02-21T19:02:27;11.93;;;6.47;;
10497;SDS011;5296;51.060;13.750;2024-02-21T19:07:30;13.25;;;6.40;;
10497;SDS011;5296;51.060;13.750;2024-02-21T19:12:35;11.38;;;7.70;;
10497;SDS011;5296;51.060;13.750;2024-02-21T19:17:38;13.32;;;7.80;;
10497;SDS011;5296;51.060;13.750;2024-02-21T19:22:40;12.73;;;7.63;;
10497;SDS011;5296;51.060;13.750;2024-02-21T19:27:43;8.73;;;6.15;;
10497;SDS011;5296;51.060;13.750;2024-02-21T19:32:45;8.50;;;6.38;;
10497;SDS011;5296;51.060;13.750;2024-02-21T19:37:47;9.57;;;6.43;;
10497;SDS011;5296;51.060;13.750;2024-02-21T19:42:50;10.50;;;5.90;;
10497;SDS011;5296;51.060;13.750;2024-02-21T19:47:52;8.75;;;5.80;;
10497;SDS011;5296;51.060;13.750;2024-02-21T19:52:53;10.38;;;5.47;;
10497;SDS011;5296;51.060;13.750;2024-02-21T19:57:56;8.55;;;5.65;;
10497;SDS011;5296;51.060;13.750;2024-02-21T20:02:58;10.32;;;5.05;;
10497;SDS011;5296;51.060;13.750;2024-02-21T20:08:00;9.40;;;5.22;;
10497;SDS011;5296;51.060;13.750;2024-02-21T20:13:02;4.72;;;4.25;;
10497;SDS011;5296;51.060;13.750;2024-02-21T20:18:04;11.07;;;4.82;;
10497;SDS011;5296;51.060;13.750;2024-02-21T20:23:06;7.65;;;5.22;;
10497;SDS011;5296;51.060;13.750;2024-02-21T20:28:13;6.68;;;5.00;;
10497;SDS011;5296;51.060;13.750;2024-02-21T20:33:15;7.07;;;4.70;;
10497;SDS011;5296;51.060;13.750;2024-02-21T20:38:17;7.50;;;5.13;;
10497;SDS011;5296;51.060;13.750;2024-02-21T20:43:19;9.85;;;5.65;;
10497;SDS011;5296;51.060;13.750;2024-02-21T20:48:20;7.03;;;4.78;;
10497;SDS011;5296;51.060;13.750;2024-02-21T20:53:22;8.20;;;5.07;;
10497;SDS011;5296;51.060;13.750;2024-02-21T20:58:27;8.25;;;4.72;;
10497;SDS011;5296;51.060;13.750;2024-02-21T21:03:29;6.93;;;4.88;;
10497;SDS011;5296;51.060;13.750;2024-02-21T21:08:33;9.68;;;4.40;;
10497;SDS011;5296;51.060;13.750;2024-02-21T21:13:35;7.43;;;4.35;;
10497;SDS011;5296;51.060;13.750;2024-02-21T21:18:37;7.05;;;4.40;;
10497;SDS011;5296;51.060;13.750;2024-02-21T21:23:39;7.75;;;5.03;;
10497;SDS011;5296;51.060;13.750;2024-02-21T21:28:42;7.25;;;4.60;;
10497;SDS011;5296;51.060;13.750;2024-02-21T21:33:44;6.30;;;5.00;;
10497;SDS011;5296;51.060;13.750;2024-02-21T21:38:45;9.48;;;4.15;;
10497;SDS011;5296;51.060;13.750;2024-02-21T21:43:49;9.52;;;4.30;;
10497;SDS011;5296;51.060;13.750;2024-02-21T21:48:51;5.32;;;3.42;;
10497;SDS011;5296;51.060;13.750;2024-02-21T21:53:53;6.53;;;3.60;;
10497;SDS011;5296;51.060;13.750;2024-02-21T21:58:55;6.95;;;3.42;;
10497;SDS011;5296;51.060;13.750;2024-02-21T22:03:56;4.95;;;3.22;;
10497;SDS011;5296;51.060;13.750;2024-02-21T22:08:58;6.47;;;3.55;;
10497;SDS011;5296;51.060;13.750;2024-02-21T22:14:00;6.03;;;3.58;;
10497;SDS011;5296;51.060;13.750;2024-02-21T22:19:02;5.05;;;3.10;;
10497;SDS011;5296;51.060;13.750;2024-02-21T22:24:04;6.75;;;3.38;;
10497;SDS011;5296;51.060;13.750;2024-02-21T22:29:06;4.57;;;3.08;;
10497;SDS011;5296;51.060;13.750;2024-02-21T22:34:08;4.57;;;2.70;;
10497;SDS011;5296;51.060;13.750;2024-02-21T22:39:09;5.20;;;3.38;;
10497;SDS011;5296;51.060;13.750;2024-02-21T22:44:11;4.50;;;2.58;;
10497;SDS011;5296;51.060;13.750;2024-02-21T22:49:13;4.70;;;3.00;;
10497;SDS011;5296;51.060;13.750;2024-02-21T22:54:14;5.18;;;2.97;;
10497;SDS011;5296;51.060;13.750;2024-02-21T22:59:17;4.15;;;2.42;;
10497;SDS011;5296;51.060;13.750;2024-02-21T23:04:19;4.68;;;3.00;;
10497;SDS011;5296;51.060;13.750;2024-02-21T23:09:21;5.50;;;2.58;;
10497;SDS011;5296;51.060;13.750;2024-02-21T23:14:23;4.72;;;2.80;;
10497;SDS011;5296;51.060;13.750;2024-02-21T23:19:24;4.13;;;2.55;;
10497;SDS011;5296;51.060;13.750;2024-02-21T23:24:26;4.35;;;2.50;;
10497;SDS011;5296;51.060;13.750;2024-02-21T23:29:28;4.80;;;2.58;;
10497;SDS011;5296;51.060;13.750;2024-02-21T23:34:29;2.75;;;2.13;;
10497;SDS011;5296;51.060;13.750;2024-02-21T23:39:31;2.30;;;1.70;;
10497;SDS011;5296;51.060;13.750;2024-02-21T23:44:32;2.25;;;1.10;;
10497;SDS011;5296;51.060;13.750;2024-02-21T23:49:34;2.30;;;1.05;;
10497;SDS011;5296;51.060;13.750;2024-02-21T23:54:37;2.30;;;0.90;;
10497;SDS011;5296;51.060;13.750;2024-02-21T23:59:38;0.90;;;0.90;;
